Weather at Calgary (Foothills Hospital) Heliport [CLOSED]

Public forecast

Using degrees Celsius for public forecast. Weather courtesy of forecast.io.

Closest aviation weather report (METAR) to Calgary (Foothills Hospital) Heliport

Closest report is Calgary International Airport, 5.2 nm (9.6 km) NE. Retrieved 2022/01/21 12:00 UTC (14 minutes ago):

CYYC 211200Z 34009KT 15SM BKN080 02/M03 A3006 RMK AC6 SLP215

Closest aviation forecast (TAF) to Calgary (Foothills Hospital) Heliport

Closest forecast is Calgary International Airport, 5.2 nm (9.6 km) NE. Retrieved 2022/01/21 12:54 UTC (0 seconds ago):

TAF CYYC 211151Z 2112/2212 35008KT P6SM FEW050 BKN080 TEMPO 2112/2114 BKN050 FM211400 30005KT P6SM SCT080 BECMG 2114/2116 26004KT BKN240 FM211800 25005KT P6SM FEW140 BKN240 FM212200 19005KT P6SM BKN100 BKN200 FM220300 120005KT P6SM OVC070 BECMG 2204/2206 25008KT FM221100 25008KT P6SM OVC090 RMK NXT FCST BY 211500Z